sensor_id;sensor_type;location;lat;lon;timestamp;P1;durP1;ratioP1;P2;durP2;ratioP2
47167;SDS011;32931;47.778;17.806;2023-02-28T00:00:16;21.10;;;12.32;;
47167;SDS011;32931;47.778;17.806;2023-02-28T00:02:43;25.45;;;12.57;;
47167;SDS011;32931;47.778;17.806;2023-02-28T00:05:11;22.48;;;12.52;;
47167;SDS011;32931;47.778;17.806;2023-02-28T00:07:39;22.45;;;12.20;;
47167;SDS011;32931;47.778;17.806;2023-02-28T00:10:06;21.10;;;11.40;;
47167;SDS011;32931;47.778;17.806;2023-02-28T00:12:35;21.48;;;11.73;;
47167;SDS011;32931;47.778;17.806;2023-02-28T00:15:02;18.23;;;11.25;;
47167;SDS011;32931;47.778;17.806;2023-02-28T00:17:31;20.38;;;11.52;;
47167;SDS011;32931;47.778;17.806;2023-02-28T00:19:57;19.83;;;10.93;;
47167;SDS011;32931;47.778;17.806;2023-02-28T00:22:41;19.27;;;11.18;;
47167;SDS011;32931;47.778;17.806;2023-02-28T00:25:10;21.85;;;12.00;;
47167;SDS011;32931;47.778;17.806;2023-02-28T00:27:37;19.35;;;10.93;;
47167;SDS011;32931;47.778;17.806;2023-02-28T00:30:05;19.42;;;10.90;;
47167;SDS011;32931;47.778;17.806;2023-02-28T00:32:33;17.13;;;10.35;;
47167;SDS011;32931;47.778;17.806;2023-02-28T00:35:00;18.70;;;10.45;;
47167;SDS011;32931;47.778;17.806;2023-02-28T00:37:26;17.13;;;10.18;;
47167;SDS011;32931;47.778;17.806;2023-02-28T00:39:53;17.65;;;9.57;;
47167;SDS011;32931;47.778;17.806;2023-02-28T00:42:19;19.98;;;9.50;;
47167;SDS011;32931;47.778;17.806;2023-02-28T00:44:45;20.27;;;9.65;;
47167;SDS011;32931;47.778;17.806;2023-02-28T00:47:11;20.42;;;10.15;;
47167;SDS011;32931;47.778;17.806;2023-02-28T00:49:37;14.57;;;8.52;;
47167;SDS011;32931;47.778;17.806;2023-02-28T00:52:04;16.95;;;8.88;;
47167;SDS011;32931;47.778;17.806;2023-02-28T00:54:30;16.65;;;8.65;;
47167;SDS011;32931;47.778;17.806;2023-02-28T00:56:56;19.45;;;9.95;;
47167;SDS011;32931;47.778;17.806;2023-02-28T00:59:22;16.05;;;9.52;;
47167;SDS011;32931;47.778;17.806;2023-02-28T01:01:48;15.50;;;8.60;;
47167;SDS011;32931;47.778;17.806;2023-02-28T01:04:15;15.38;;;9.40;;
47167;SDS011;32931;47.778;17.806;2023-02-28T01:06:41;19.70;;;9.95;;
47167;SDS011;32931;47.778;17.806;2023-02-28T01:09:07;21.77;;;10.55;;
47167;SDS011;32931;47.778;17.806;2023-02-28T01:11:34;19.75;;;10.02;;
47167;SDS011;32931;47.778;17.806;2023-02-28T01:14:00;19.05;;;10.43;;
47167;SDS011;32931;47.778;17.806;2023-02-28T01:16:27;20.17;;;11.20;;
47167;SDS011;32931;47.778;17.806;2023-02-28T01:18:54;18.48;;;9.50;;
47167;SDS011;32931;47.778;17.806;2023-02-28T01:21:20;22.40;;;10.57;;
47167;SDS011;32931;47.778;17.806;2023-02-28T01:23:47;18.50;;;10.15;;
47167;SDS011;32931;47.778;17.806;2023-02-28T01:26:15;19.25;;;10.68;;
47167;SDS011;32931;47.778;17.806;2023-02-28T01:28:43;18.00;;;10.48;;
47167;SDS011;32931;47.778;17.806;2023-02-28T01:31:10;17.33;;;10.45;;
47167;SDS011;32931;47.778;17.806;2023-02-28T01:33:36;18.00;;;10.45;;
47167;SDS011;32931;47.778;17.806;2023-02-28T01:36:07;19.92;;;11.82;;
47167;SDS011;32931;47.778;17.806;2023-02-28T01:38:36;21.98;;;12.30;;
47167;SDS011;32931;47.778;17.806;2023-02-28T01:41:02;25.00;;;13.00;;
47167;SDS011;32931;47.778;17.806;2023-02-28T01:43:31;25.05;;;13.90;;
47167;SDS011;32931;47.778;17.806;2023-02-28T01:46:17;26.17;;;14.00;;
47167;SDS011;32931;47.778;17.806;2023-02-28T01:48:48;28.40;;;13.73;;
47167;SDS011;32931;47.778;17.806;2023-02-28T01:51:21;27.48;;;15.07;;
47167;SDS011;32931;47.778;17.806;2023-02-28T01:54:17;25.20;;;14.10;;
47167;SDS011;32931;47.778;17.806;2023-02-28T01:56:51;24.83;;;13.40;;
47167;SDS011;32931;47.778;17.806;2023-02-28T01:59:27;25.50;;;13.77;;
47167;SDS011;32931;47.778;17.806;2023-02-28T02:01:58;24.67;;;14.05;;
47167;SDS011;32931;47.778;17.806;2023-02-28T02:04:26;24.77;;;13.82;;
47167;SDS011;32931;47.778;17.806;2023-02-28T02:06:58;25.83;;;13.43;;
47167;SDS011;32931;47.778;17.806;2023-02-28T02:09:24;26.17;;;13.23;;
47167;SDS011;32931;47.778;17.806;2023-02-28T02:11:50;27.50;;;13.43;;
47167;SDS011;32931;47.778;17.806;2023-02-28T02:14:21;31.42;;;15.15;;
47167;SDS011;32931;47.778;17.806;2023-02-28T02:17:56;26.63;;;13.90;;
47167;SDS011;32931;47.778;17.806;2023-02-28T02:25:40;24.42;;;13.27;;
47167;SDS011;32931;47.778;17.806;2023-02-28T02:36:33;19.73;;;12.60;;
47167;SDS011;32931;47.778;17.806;2023-02-28T02:39:07;22.77;;;13.02;;
47167;SDS011;32931;47.778;17.806;2023-02-28T02:41:41;21.00;;;12.57;;
47167;SDS011;32931;47.778;17.806;2023-02-28T02:47:05;33.33;;;13.75;;
47167;SDS011;32931;47.778;17.806;2023-02-28T02:49:35;25.42;;;13.15;;
47167;SDS011;32931;47.778;17.806;2023-02-28T02:52:04;24.23;;;13.52;;
47167;SDS011;32931;47.778;17.806;2023-02-28T02:54:35;26.02;;;12.73;;
47167;SDS011;32931;47.778;17.806;2023-02-28T02:57:06;23.92;;;12.93;;
47167;SDS011;32931;47.778;17.806;2023-02-28T02:59:36;21.83;;;12.80;;
47167;SDS011;32931;47.778;17.806;2023-02-28T03:02:06;23.02;;;13.07;;
47167;SDS011;32931;47.778;17.806;2023-02-28T03:04:38;25.35;;;13.15;;
47167;SDS011;32931;47.778;17.806;2023-02-28T03:07:09;22.77;;;13.43;;
47167;SDS011;32931;47.778;17.806;2023-02-28T03:09:35;26.98;;;13.75;;
47167;SDS011;32931;47.778;17.806;2023-02-28T03:12:01;23.75;;;13.32;;
47167;SDS011;32931;47.778;17.806;2023-02-28T03:23:23;20.05;;;12.20;;
47167;SDS011;32931;47.778;17.806;2023-02-28T03:26:04;24.83;;;13.30;;
47167;SDS011;32931;47.778;17.806;2023-02-28T03:34:49;21.63;;;12.27;;
47167;SDS011;32931;47.778;17.806;2023-02-28T03:37:24;23.27;;;13.35;;
47167;SDS011;32931;47.778;17.806;2023-02-28T03:39:56;24.67;;;12.98;;
47167;SDS011;32931;47.778;17.806;2023-02-28T03:42:28;26.10;;;13.38;;
47167;SDS011;32931;47.778;17.806;2023-02-28T03:44:58;22.10;;;13.23;;
47167;SDS011;32931;47.778;17.806;2023-02-28T03:47:38;23.10;;;13.52;;
47167;SDS011;32931;47.778;17.806;2023-02-28T03:52:50;69.32;;;36.30;;
47167;SDS011;32931;47.778;17.806;2023-02-28T03:55:28;116.90;;;61.22;;
47167;SDS011;32931;47.778;17.806;2023-02-28T03:58:01;32.40;;;19.35;;
47167;SDS011;32931;47.778;17.806;2023-02-28T04:00:54;69.20;;;38.28;;
47167;SDS011;32931;47.778;17.806;2023-02-28T04:03:36;57.50;;;31.10;;
47167;SDS011;32931;47.778;17.806;2023-02-28T04:06:04;48.03;;;26.63;;
47167;SDS011;32931;47.778;17.806;2023-02-28T04:08:32;46.42;;;25.13;;
47167;SDS011;32931;47.778;17.806;2023-02-28T04:11:01;47.45;;;25.25;;
47167;SDS011;32931;47.778;17.806;2023-02-28T04:13:32;43.90;;;22.77;;
47167;SDS011;32931;47.778;17.806;2023-02-28T04:15:58;28.70;;;16.35;;
47167;SDS011;32931;47.778;17.806;2023-02-28T04:18:24;41.92;;;23.08;;
47167;SDS011;32931;47.778;17.806;2023-02-28T04:20:50;37.65;;;21.15;;
47167;SDS011;32931;47.778;17.806;2023-02-28T04:23:16;40.55;;;22.98;;
47167;SDS011;32931;47.778;17.806;2023-02-28T04:25:43;37.50;;;20.42;;
47167;SDS011;32931;47.778;17.806;2023-02-28T04:28:09;30.83;;;17.65;;
47167;SDS011;32931;47.778;17.806;2023-02-28T04:30:35;29.30;;;15.85;;
47167;SDS011;32931;47.778;17.806;2023-02-28T04:33:02;31.90;;;19.20;;
47167;SDS011;32931;47.778;17.806;2023-02-28T04:35:28;38.60;;;21.77;;
47167;SDS011;32931;47.778;17.806;2023-02-28T04:37:54;36.30;;;22.52;;
47167;SDS011;32931;47.778;17.806;2023-02-28T04:40:21;42.00;;;22.88;;
47167;SDS011;32931;47.778;17.806;2023-02-28T04:42:47;32.97;;;18.95;;
47167;SDS011;32931;47.778;17.806;2023-02-28T04:45:13;35.15;;;21.20;;
47167;SDS011;32931;47.778;17.806;2023-02-28T04:47:39;38.22;;;18.40;;
47167;SDS011;32931;47.778;17.806;2023-02-28T04:50:05;29.83;;;17.83;;
47167;SDS011;32931;47.778;17.806;2023-02-28T04:52:32;27.60;;;16.33;;
47167;SDS011;32931;47.778;17.806;2023-02-28T04:54:58;27.10;;;15.30;;
47167;SDS011;32931;47.778;17.806;2023-02-28T04:57:24;20.10;;;12.43;;
47167;SDS011;32931;47.778;17.806;2023-02-28T04:59:50;25.83;;;12.57;;
47167;SDS011;32931;47.778;17.806;2023-02-28T05:02:16;28.88;;;12.73;;
47167;SDS011;32931;47.778;17.806;2023-02-28T05:04:42;23.20;;;12.70;;
47167;SDS011;32931;47.778;17.806;2023-02-28T05:07:08;26.85;;;13.18;;
47167;SDS011;32931;47.778;17.806;2023-02-28T05:09:35;24.08;;;12.82;;
47167;SDS011;32931;47.778;17.806;2023-02-28T05:12:01;32.13;;;15.02;;
47167;SDS011;32931;47.778;17.806;2023-02-28T05:14:27;34.20;;;19.77;;
47167;SDS011;32931;47.778;17.806;2023-02-28T05:16:53;39.97;;;22.55;;
47167;SDS011;32931;47.778;17.806;2023-02-28T05:19:20;33.95;;;15.43;;
47167;SDS011;32931;47.778;17.806;2023-02-28T05:21:53;30.73;;;13.45;;
47167;SDS011;32931;47.778;17.806;2023-02-28T05:24:20;30.00;;;14.07;;
47167;SDS011;32931;47.778;17.806;2023-02-28T05:26:49;32.50;;;13.77;;
47167;SDS011;32931;47.778;17.806;2023-02-28T05:29:18;27.52;;;14.18;;
47167;SDS011;32931;47.778;17.806;2023-02-28T05:31:44;32.40;;;15.57;;
47167;SDS011;32931;47.778;17.806;2023-02-28T05:34:11;31.70;;;15.50;;
47167;SDS011;32931;47.778;17.806;2023-02-28T05:36:38;27.33;;;13.65;;
47167;SDS011;32931;47.778;17.806;2023-02-28T05:39:05;28.65;;;14.20;;
47167;SDS011;32931;47.778;17.806;2023-02-28T05:41:33;28.58;;;14.10;;
47167;SDS011;32931;47.778;17.806;2023-02-28T05:43:59;38.40;;;16.55;;
47167;SDS011;32931;47.778;17.806;2023-02-28T05:46:26;98.13;;;43.83;;
47167;SDS011;32931;47.778;17.806;2023-02-28T05:48:52;73.38;;;33.22;;
47167;SDS011;32931;47.778;17.806;2023-02-28T05:51:18;48.15;;;22.25;;
47167;SDS011;32931;47.778;17.806;2023-02-28T05:53:44;42.45;;;20.58;;
47167;SDS011;32931;47.778;17.806;2023-02-28T05:56:10;37.50;;;18.67;;
47167;SDS011;32931;47.778;17.806;2023-02-28T05:58:36;32.45;;;19.42;;
47167;SDS011;32931;47.778;17.806;2023-02-28T06:03:49;32.72;;;19.00;;
47167;SDS011;32931;47.778;17.806;2023-02-28T06:06:16;38.20;;;19.55;;
47167;SDS011;32931;47.778;17.806;2023-02-28T06:08:42;44.42;;;27.13;;
47167;SDS011;32931;47.778;17.806;2023-02-28T06:11:10;63.63;;;31.30;;
47167;SDS011;32931;47.778;17.806;2023-02-28T06:13:36;121.43;;;59.15;;
47167;SDS011;32931;47.778;17.806;2023-02-28T06:16:02;127.68;;;62.10;;
47167;SDS011;32931;47.778;17.806;2023-02-28T06:18:29;68.40;;;33.97;;
47167;SDS011;32931;47.778;17.806;2023-02-28T06:20:55;61.88;;;26.27;;
47167;SDS011;32931;47.778;17.806;2023-02-28T06:23:22;87.07;;;44.75;;
47167;SDS011;32931;47.778;17.806;2023-02-28T06:25:48;48.60;;;24.98;;
47167;SDS011;32931;47.778;17.806;2023-02-28T06:28:15;41.58;;;22.25;;
47167;SDS011;32931;47.778;17.806;2023-02-28T06:30:41;42.55;;;21.98;;
47167;SDS011;32931;47.778;17.806;2023-02-28T06:33:07;40.50;;;22.02;;
47167;SDS011;32931;47.778;17.806;2023-02-28T06:35:33;45.08;;;21.65;;
47167;SDS011;32931;47.778;17.806;2023-02-28T06:37:59;37.50;;;21.25;;
47167;SDS011;32931;47.778;17.806;2023-02-28T06:40:25;35.42;;;19.73;;
47167;SDS011;32931;47.778;17.806;2023-02-28T06:42:52;50.22;;;22.40;;
47167;SDS011;32931;47.778;17.806;2023-02-28T06:45:18;45.28;;;22.08;;
47167;SDS011;32931;47.778;17.806;2023-02-28T06:47:44;41.70;;;19.98;;
47167;SDS011;32931;47.778;17.806;2023-02-28T06:50:12;37.42;;;20.23;;
47167;SDS011;32931;47.778;17.806;2023-02-28T06:52:38;43.00;;;21.63;;
47167;SDS011;32931;47.778;17.806;2023-02-28T06:55:05;36.88;;;20.48;;
47167;SDS011;32931;47.778;17.806;2023-02-28T06:57:33;38.95;;;19.80;;
47167;SDS011;32931;47.778;17.806;2023-02-28T07:00:02;33.38;;;19.98;;
47167;SDS011;32931;47.778;17.806;2023-02-28T07:02:33;41.20;;;20.08;;
47167;SDS011;32931;47.778;17.806;2023-02-28T07:05:00;39.50;;;19.60;;
47167;SDS011;32931;47.778;17.806;2023-02-28T07:07:26;43.00;;;21.40;;
47167;SDS011;32931;47.778;17.806;2023-02-28T07:09:52;41.22;;;20.02;;
47167;SDS011;32931;47.778;17.806;2023-02-28T07:12:19;47.83;;;21.13;;
47167;SDS011;32931;47.778;17.806;2023-02-28T07:14:45;39.28;;;20.95;;
47167;SDS011;32931;47.778;17.806;2023-02-28T07:17:11;33.65;;;19.38;;
47167;SDS011;32931;47.778;17.806;2023-02-28T07:19:40;43.50;;;18.80;;
47167;SDS011;32931;47.778;17.806;2023-02-28T07:22:06;38.05;;;18.05;;
47167;SDS011;32931;47.778;17.806;2023-02-28T07:24:33;31.85;;;17.77;;
47167;SDS011;32931;47.778;17.806;2023-02-28T07:26:59;39.90;;;16.85;;
47167;SDS011;32931;47.778;17.806;2023-02-28T07:29:26;39.70;;;17.73;;
47167;SDS011;32931;47.778;17.806;2023-02-28T07:31:52;35.17;;;17.00;;
47167;SDS011;32931;47.778;17.806;2023-02-28T07:34:19;29.58;;;16.05;;
47167;SDS011;32931;47.778;17.806;2023-02-28T07:36:45;33.92;;;16.67;;
47167;SDS011;32931;47.778;17.806;2023-02-28T07:39:12;33.30;;;17.42;;
47167;SDS011;32931;47.778;17.806;2023-02-28T07:41:38;29.80;;;15.98;;
47167;SDS011;32931;47.778;17.806;2023-02-28T07:44:09;31.77;;;17.15;;
47167;SDS011;32931;47.778;17.806;2023-02-28T07:46:36;28.27;;;15.48;;
47167;SDS011;32931;47.778;17.806;2023-02-28T07:49:03;30.50;;;15.52;;
47167;SDS011;32931;47.778;17.806;2023-02-28T07:51:29;27.15;;;14.88;;
47167;SDS011;32931;47.778;17.806;2023-02-28T07:53:56;22.67;;;12.52;;
47167;SDS011;32931;47.778;17.806;2023-02-28T07:56:23;22.33;;;13.32;;
47167;SDS011;32931;47.778;17.806;2023-02-28T07:58:49;26.77;;;12.70;;
47167;SDS011;32931;47.778;17.806;2023-02-28T08:01:15;25.83;;;12.90;;
47167;SDS011;32931;47.778;17.806;2023-02-28T08:03:42;25.20;;;13.52;;
47167;SDS011;32931;47.778;17.806;2023-02-28T08:06:15;44.40;;;20.95;;
47167;SDS011;32931;47.778;17.806;2023-02-28T08:08:43;33.75;;;16.98;;
47167;SDS011;32931;47.778;17.806;2023-02-28T08:11:10;33.33;;;12.88;;
47167;SDS011;32931;47.778;17.806;2023-02-28T08:13:36;18.60;;;11.32;;
47167;SDS011;32931;47.778;17.806;2023-02-28T08:16:02;23.70;;;9.75;;
47167;SDS011;32931;47.778;17.806;2023-02-28T08:18:28;20.67;;;11.20;;
47167;SDS011;32931;47.778;17.806;2023-02-28T08:20:54;22.25;;;10.95;;
47167;SDS011;32931;47.778;17.806;2023-02-28T08:23:22;23.92;;;12.85;;
47167;SDS011;32931;47.778;17.806;2023-02-28T08:25:54;23.67;;;13.25;;
47167;SDS011;32931;47.778;17.806;2023-02-28T08:28:21;24.23;;;13.60;;
47167;SDS011;32931;47.778;17.806;2023-02-28T08:30:48;26.23;;;13.65;;
47167;SDS011;32931;47.778;17.806;2023-02-28T08:33:14;22.42;;;11.93;;
47167;SDS011;32931;47.778;17.806;2023-02-28T08:35:40;20.00;;;11.82;;
47167;SDS011;32931;47.778;17.806;2023-02-28T08:38:06;20.88;;;11.40;;
47167;SDS011;32931;47.778;17.806;2023-02-28T08:40:33;21.45;;;13.32;;
47167;SDS011;32931;47.778;17.806;2023-02-28T08:42:59;22.27;;;13.25;;
47167;SDS011;32931;47.778;17.806;2023-02-28T08:45:25;32.80;;;13.77;;
47167;SDS011;32931;47.778;17.806;2023-02-28T08:47:51;23.80;;;12.63;;
47167;SDS011;32931;47.778;17.806;2023-02-28T08:50:20;22.98;;;12.82;;
47167;SDS011;32931;47.778;17.806;2023-02-28T08:52:47;26.02;;;15.10;;
47167;SDS011;32931;47.778;17.806;2023-02-28T08:55:14;28.20;;;13.07;;
47167;SDS011;32931;47.778;17.806;2023-02-28T08:57:40;15.50;;;8.55;;
47167;SDS011;32931;47.778;17.806;2023-02-28T09:00:07;33.88;;;16.15;;
47167;SDS011;32931;47.778;17.806;2023-02-28T09:02:33;38.05;;;14.60;;
47167;SDS011;32931;47.778;17.806;2023-02-28T09:04:59;23.15;;;10.60;;
47167;SDS011;32931;47.778;17.806;2023-02-28T09:07:26;24.77;;;13.40;;
47167;SDS011;32931;47.778;17.806;2023-02-28T09:09:52;22.98;;;12.07;;
47167;SDS011;32931;47.778;17.806;2023-02-28T09:12:22;24.08;;;14.57;;
47167;SDS011;32931;47.778;17.806;2023-02-28T09:14:49;24.45;;;10.27;;
47167;SDS011;32931;47.778;17.806;2023-02-28T09:17:16;24.55;;;11.50;;
47167;SDS011;32931;47.778;17.806;2023-02-28T09:19:43;20.02;;;9.80;;
47167;SDS011;32931;47.778;17.806;2023-02-28T09:22:10;21.38;;;10.15;;
47167;SDS011;32931;47.778;17.806;2023-02-28T09:24:37;22.05;;;11.30;;
47167;SDS011;32931;47.778;17.806;2023-02-28T09:27:04;17.55;;;10.60;;
47167;SDS011;32931;47.778;17.806;2023-02-28T09:29:31;20.30;;;11.32;;
47167;SDS011;32931;47.778;17.806;2023-02-28T09:31:58;24.02;;;12.70;;
47167;SDS011;32931;47.778;17.806;2023-02-28T09:34:25;28.88;;;14.63;;
47167;SDS011;32931;47.778;17.806;2023-02-28T09:36:52;28.90;;;14.57;;
47167;SDS011;32931;47.778;17.806;2023-02-28T09:39:20;22.63;;;13.02;;
47167;SDS011;32931;47.778;17.806;2023-02-28T09:41:48;20.23;;;11.73;;
47167;SDS011;32931;47.778;17.806;2023-02-28T09:44:22;24.00;;;11.35;;
47167;SDS011;32931;47.778;17.806;2023-02-28T09:47:20;16.45;;;9.70;;
47167;SDS011;32931;47.778;17.806;2023-02-28T09:49:44;19.25;;;9.88;;
47167;SDS011;32931;47.778;17.806;2023-02-28T09:52:14;17.60;;;10.15;;
47167;SDS011;32931;47.778;17.806;2023-02-28T09:54:44;19.75;;;9.75;;
47167;SDS011;32931;47.778;17.806;2023-02-28T09:57:33;15.82;;;8.82;;
47167;SDS011;32931;47.778;17.806;2023-02-28T10:00:15;18.95;;;8.63;;
47167;SDS011;32931;47.778;17.806;2023-02-28T10:05:38;13.13;;;8.25;;
47167;SDS011;32931;47.778;17.806;2023-02-28T10:08:21;14.05;;;7.75;;
47167;SDS011;32931;47.778;17.806;2023-02-28T10:11:00;18.73;;;10.07;;
47167;SDS011;32931;47.778;17.806;2023-02-28T10:18:54;15.00;;;8.82;;
47167;SDS011;32931;47.778;17.806;2023-02-28T10:21:44;18.63;;;10.20;;
47167;SDS011;32931;47.778;17.806;2023-02-28T10:24:20;13.48;;;8.65;;
47167;SDS011;32931;47.778;17.806;2023-02-28T10:26:47;18.23;;;9.40;;
47167;SDS011;32931;47.778;17.806;2023-02-28T10:29:14;16.02;;;8.63;;
47167;SDS011;32931;47.778;17.806;2023-02-28T10:31:40;17.92;;;9.18;;
47167;SDS011;32931;47.778;17.806;2023-02-28T10:34:07;15.07;;;9.32;;
47167;SDS011;32931;47.778;17.806;2023-02-28T10:36:37;23.10;;;9.15;;
47167;SDS011;32931;47.778;17.806;2023-02-28T10:39:33;15.27;;;9.50;;
47167;SDS011;32931;47.778;17.806;2023-02-28T10:41:59;16.83;;;8.55;;
47167;SDS011;32931;47.778;17.806;2023-02-28T10:44:25;17.25;;;9.20;;
47167;SDS011;32931;47.778;17.806;2023-02-28T10:46:51;17.08;;;10.35;;
47167;SDS011;32931;47.778;17.806;2023-02-28T10:49:22;19.08;;;9.63;;
47167;SDS011;32931;47.778;17.806;2023-02-28T10:51:54;16.20;;;7.97;;
47167;SDS011;32931;47.778;17.806;2023-02-28T10:57:05;18.55;;;9.73;;
47167;SDS011;32931;47.778;17.806;2023-02-28T10:59:40;16.15;;;9.20;;
47167;SDS011;32931;47.778;17.806;2023-02-28T11:05:27;18.38;;;8.80;;
47167;SDS011;32931;47.778;17.806;2023-02-28T11:08:03;16.83;;;9.63;;
47167;SDS011;32931;47.778;17.806;2023-02-28T11:10:44;19.27;;;8.40;;
47167;SDS011;32931;47.778;17.806;2023-02-28T11:13:20;15.13;;;8.70;;
47167;SDS011;32931;47.778;17.806;2023-02-28T11:15:51;14.07;;;7.93;;
47167;SDS011;32931;47.778;17.806;2023-02-28T11:21:04;13.82;;;7.43;;
47167;SDS011;32931;47.778;17.806;2023-02-28T11:23:32;17.65;;;7.88;;
47167;SDS011;32931;47.778;17.806;2023-02-28T11:26:02;12.07;;;7.70;;
47167;SDS011;32931;47.778;17.806;2023-02-28T11:28:39;14.02;;;8.15;;
47167;SDS011;32931;47.778;17.806;2023-02-28T11:33:54;15.02;;;7.65;;
47167;SDS011;32931;47.778;17.806;2023-02-28T11:38:56;12.70;;;7.38;;
47167;SDS011;32931;47.778;17.806;2023-02-28T11:47:22;12.43;;;7.15;;
47167;SDS011;32931;47.778;17.806;2023-02-28T11:55:20;16.38;;;9.55;;
47167;SDS011;32931;47.778;17.806;2023-02-28T12:06:00;17.02;;;9.88;;
47167;SDS011;32931;47.778;17.806;2023-02-28T12:14:00;12.23;;;7.15;;
47167;SDS011;32931;47.778;17.806;2023-02-28T12:19:27;14.00;;;7.20;;
47167;SDS011;32931;47.778;17.806;2023-02-28T12:22:13;14.30;;;8.43;;
47167;SDS011;32931;47.778;17.806;2023-02-28T12:27:15;13.27;;;7.45;;
47167;SDS011;32931;47.778;17.806;2023-02-28T12:32:18;13.55;;;7.47;;
47167;SDS011;32931;47.778;17.806;2023-02-28T12:34:52;13.63;;;8.50;;
47167;SDS011;32931;47.778;17.806;2023-02-28T12:37:25;14.10;;;8.32;;
47167;SDS011;32931;47.778;17.806;2023-02-28T12:40:02;12.00;;;7.35;;
47167;SDS011;32931;47.778;17.806;2023-02-28T12:42:32;13.13;;;7.85;;
47167;SDS011;32931;47.778;17.806;2023-02-28T12:45:05;13.82;;;8.07;;
47167;SDS011;32931;47.778;17.806;2023-02-28T12:47:38;12.27;;;7.82;;
47167;SDS011;32931;47.778;17.806;2023-02-28T12:50:09;13.55;;;7.80;;
47167;SDS011;32931;47.778;17.806;2023-02-28T12:52:41;14.48;;;8.32;;
47167;SDS011;32931;47.778;17.806;2023-02-28T12:55:21;15.23;;;8.40;;
47167;SDS011;32931;47.778;17.806;2023-02-28T12:58:10;14.73;;;8.02;;
47167;SDS011;32931;47.778;17.806;2023-02-28T13:01:02;16.17;;;8.40;;
47167;SDS011;32931;47.778;17.806;2023-02-28T13:03:41;16.27;;;8.10;;
47167;SDS011;32931;47.778;17.806;2023-02-28T13:06:34;14.73;;;8.75;;
47167;SDS011;32931;47.778;17.806;2023-02-28T13:09:11;11.60;;;7.63;;
47167;SDS011;32931;47.778;17.806;2023-02-28T13:11:44;17.02;;;8.50;;
47167;SDS011;32931;47.778;17.806;2023-02-28T13:14:26;14.50;;;8.95;;
47167;SDS011;32931;47.778;17.806;2023-02-28T13:17:20;13.25;;;8.20;;
47167;SDS011;32931;47.778;17.806;2023-02-28T13:19:56;15.15;;;8.23;;
47167;SDS011;32931;47.778;17.806;2023-02-28T13:22:38;12.02;;;7.47;;
47167;SDS011;32931;47.778;17.806;2023-02-28T13:28:08;13.85;;;8.85;;
47167;SDS011;32931;47.778;17.806;2023-02-28T13:38:34;17.00;;;8.63;;
47167;SDS011;32931;47.778;17.806;2023-02-28T13:44:11;15.77;;;9.77;;
47167;SDS011;32931;47.778;17.806;2023-02-28T14:08:52;16.00;;;9.30;;
47167;SDS011;32931;47.778;17.806;2023-02-28T14:11:24;15.63;;;9.80;;
47167;SDS011;32931;47.778;17.806;2023-02-28T14:14:01;14.77;;;9.45;;
47167;SDS011;32931;47.778;17.806;2023-02-28T14:16:44;16.40;;;10.07;;
47167;SDS011;32931;47.778;17.806;2023-02-28T14:27:43;23.60;;;15.05;;
47167;SDS011;32931;47.778;17.806;2023-02-28T14:33:11;17.30;;;9.88;;
47167;SDS011;32931;47.778;17.806;2023-02-28T14:38:55;15.05;;;10.05;;
47167;SDS011;32931;47.778;17.806;2023-02-28T14:41:30;24.55;;;13.15;;
47167;SDS011;32931;47.778;17.806;2023-02-28T14:44:01;17.52;;;10.85;;
47167;SDS011;32931;47.778;17.806;2023-02-28T14:46:38;20.48;;;10.98;;
47167;SDS011;32931;47.778;17.806;2023-02-28T14:49:15;25.42;;;16.58;;
47167;SDS011;32931;47.778;17.806;2023-02-28T14:52:06;16.63;;;10.07;;
47167;SDS011;32931;47.778;17.806;2023-02-28T14:54:46;14.73;;;9.35;;
47167;SDS011;32931;47.778;17.806;2023-02-28T14:57:22;15.52;;;9.88;;
47167;SDS011;32931;47.778;17.806;2023-02-28T14:59:56;16.15;;;9.95;;
47167;SDS011;32931;47.778;17.806;2023-02-28T15:02:49;16.33;;;9.23;;
47167;SDS011;32931;47.778;17.806;2023-02-28T15:05:23;13.95;;;9.30;;
47167;SDS011;32931;47.778;17.806;2023-02-28T15:08:03;20.10;;;10.38;;
47167;SDS011;32931;47.778;17.806;2023-02-28T15:10:32;29.98;;;10.45;;
47167;SDS011;32931;47.778;17.806;2023-02-28T15:18:22;13.05;;;8.88;;
47167;SDS011;32931;47.778;17.806;2023-02-28T15:20:49;19.45;;;9.15;;
47167;SDS011;32931;47.778;17.806;2023-02-28T15:23:17;15.25;;;9.80;;
47167;SDS011;32931;47.778;17.806;2023-02-28T15:25:45;20.02;;;10.07;;
47167;SDS011;32931;47.778;17.806;2023-02-28T15:28:14;15.50;;;10.18;;
47167;SDS011;32931;47.778;17.806;2023-02-28T15:30:56;14.35;;;9.35;;
47167;SDS011;32931;47.778;17.806;2023-02-28T15:33:28;15.77;;;9.90;;
47167;SDS011;32931;47.778;17.806;2023-02-28T15:36:06;17.48;;;10.40;;
47167;SDS011;32931;47.778;17.806;2023-02-28T15:41:20;16.35;;;9.68;;
47167;SDS011;32931;47.778;17.806;2023-02-28T15:47:01;13.93;;;9.57;;
47167;SDS011;32931;47.778;17.806;2023-02-28T15:49:37;16.38;;;9.80;;
47167;SDS011;32931;47.778;17.806;2023-02-28T15:52:06;16.15;;;10.00;;
47167;SDS011;32931;47.778;17.806;2023-02-28T15:54:41;14.50;;;9.93;;
47167;SDS011;32931;47.778;17.806;2023-02-28T15:57:11;19.33;;;10.93;;
47167;SDS011;32931;47.778;17.806;2023-02-28T15:59:48;18.67;;;10.48;;
47167;SDS011;32931;47.778;17.806;2023-02-28T16:02:25;16.65;;;10.80;;
47167;SDS011;32931;47.778;17.806;2023-02-28T16:05:42;17.70;;;11.05;;
47167;SDS011;32931;47.778;17.806;2023-02-28T16:07:46;19.35;;;11.68;;
47167;SDS011;32931;47.778;17.806;2023-02-28T16:10:14;16.27;;;11.02;;
47167;SDS011;32931;47.778;17.806;2023-02-28T16:12:40;22.08;;;10.32;;
47167;SDS011;32931;47.778;17.806;2023-02-28T16:15:08;24.38;;;11.32;;
47167;SDS011;32931;47.778;17.806;2023-02-28T16:17:45;16.88;;;11.50;;
47167;SDS011;32931;47.778;17.806;2023-02-28T16:20:16;15.60;;;10.75;;
47167;SDS011;32931;47.778;17.806;2023-02-28T16:22:42;19.65;;;11.80;;
47167;SDS011;32931;47.778;17.806;2023-02-28T16:25:13;19.73;;;11.73;;
47167;SDS011;32931;47.778;17.806;2023-02-28T16:27:44;17.42;;;11.20;;
47167;SDS011;32931;47.778;17.806;2023-02-28T16:30:16;21.70;;;11.07;;
47167;SDS011;32931;47.778;17.806;2023-02-28T16:32:48;22.55;;;13.50;;
47167;SDS011;32931;47.778;17.806;2023-02-28T16:35:15;21.38;;;12.68;;
47167;SDS011;32931;47.778;17.806;2023-02-28T16:37:43;19.83;;;13.15;;
47167;SDS011;32931;47.778;17.806;2023-02-28T16:40:13;19.83;;;13.18;;
47167;SDS011;32931;47.778;17.806;2023-02-28T16:42:44;26.73;;;14.25;;
47167;SDS011;32931;47.778;17.806;2023-02-28T16:45:16;46.15;;;14.68;;
47167;SDS011;32931;47.778;17.806;2023-02-28T16:47:50;27.92;;;14.82;;
47167;SDS011;32931;47.778;17.806;2023-02-28T16:50:20;21.70;;;13.45;;
47167;SDS011;32931;47.778;17.806;2023-02-28T16:52:54;19.83;;;13.02;;
47167;SDS011;32931;47.778;17.806;2023-02-28T16:55:22;23.33;;;13.63;;
47167;SDS011;32931;47.778;17.806;2023-02-28T16:57:59;19.73;;;12.70;;
47167;SDS011;32931;47.778;17.806;2023-02-28T17:00:27;28.17;;;14.52;;
47167;SDS011;32931;47.778;17.806;2023-02-28T17:02:54;26.42;;;15.35;;